sensor_id;sensor_type;location;lat;lon;timestamp;P1;durP1;ratioP1;P2;durP2;ratioP2
4226;SDS011;2127;51.046;7.080;2024-02-04T00:00:18;5.27;;;2.50;;
4226;SDS011;2127;51.046;7.080;2024-02-04T00:02:46;2.23;;;2.10;;
4226;SDS011;2127;51.046;7.080;2024-02-04T00:05:12;2.57;;;2.10;;
4226;SDS011;2127;51.046;7.080;2024-02-04T00:07:39;3.03;;;2.10;;
4226;SDS011;2127;51.046;7.080;2024-02-04T00:10:05;1.83;;;1.70;;
4226;SDS011;2127;51.046;7.080;2024-02-04T00:12:32;1.30;;;1.20;;
4226;SDS011;2127;51.046;7.080;2024-02-04T00:14:58;1.23;;;1.10;;
4226;SDS011;2127;51.046;7.080;2024-02-04T00:17:24;1.13;;;1.03;;
4226;SDS011;2127;51.046;7.080;2024-02-04T00:19:56;0.60;;;0.60;;
4226;SDS011;2127;51.046;7.080;2024-02-04T00:22:22;0.50;;;0.50;;
4226;SDS011;2127;51.046;7.080;2024-02-04T00:24:48;2.80;;;0.93;;
4226;SDS011;2127;51.046;7.080;2024-02-04T00:27:15;0.87;;;0.47;;
4226;SDS011;2127;51.046;7.080;2024-02-04T00:29:41;0.70;;;0.70;;
4226;SDS011;2127;51.046;7.080;2024-02-04T00:32:07;3.27;;;1.30;;
4226;SDS011;2127;51.046;7.080;2024-02-04T00:34:34;1.10;;;1.00;;
4226;SDS011;2127;51.046;7.080;2024-02-04T00:37:01;0.73;;;0.73;;
4226;SDS011;2127;51.046;7.080;2024-02-04T00:39:28;0.83;;;0.83;;
4226;SDS011;2127;51.046;7.080;2024-02-04T00:41:54;2.50;;;0.90;;
4226;SDS011;2127;51.046;7.080;2024-02-04T00:44:20;4.67;;;1.43;;
4226;SDS011;2127;51.046;7.080;2024-02-04T00:46:46;3.03;;;0.83;;
4226;SDS011;2127;51.046;7.080;2024-02-04T00:49:13;0.87;;;0.87;;
4226;SDS011;2127;51.046;7.080;2024-02-04T00:51:39;1.30;;;1.20;;
4226;SDS011;2127;51.046;7.080;2024-02-04T00:54:07;1.80;;;1.80;;
4226;SDS011;2127;51.046;7.080;2024-02-04T00:56:33;0.70;;;0.70;;
4226;SDS011;2127;51.046;7.080;2024-02-04T00:58:59;1.07;;;1.07;;
4226;SDS011;2127;51.046;7.080;2024-02-04T01:01:26;1.33;;;1.20;;
4226;SDS011;2127;51.046;7.080;2024-02-04T01:03:52;1.23;;;1.17;;
4226;SDS011;2127;51.046;7.080;2024-02-04T01:06:18;0.80;;;0.80;;
4226;SDS011;2127;51.046;7.080;2024-02-04T01:08:44;0.83;;;0.83;;
4226;SDS011;2127;51.046;7.080;2024-02-04T01:11:12;1.37;;;1.27;;
4226;SDS011;2127;51.046;7.080;2024-02-04T01:13:38;2.50;;;2.30;;
4226;SDS011;2127;51.046;7.080;2024-02-04T01:16:05;1.80;;;1.70;;
4226;SDS011;2127;51.046;7.080;2024-02-04T01:18:31;2.60;;;1.67;;
4226;SDS011;2127;51.046;7.080;2024-02-04T01:20:58;2.37;;;1.70;;
4226;SDS011;2127;51.046;7.080;2024-02-04T01:23:25;2.03;;;1.57;;
4226;SDS011;2127;51.046;7.080;2024-02-04T01:25:51;2.00;;;1.90;;
4226;SDS011;2127;51.046;7.080;2024-02-04T01:28:19;1.07;;;1.07;;
4226;SDS011;2127;51.046;7.080;2024-02-04T01:30:45;2.00;;;1.90;;
4226;SDS011;2127;51.046;7.080;2024-02-04T01:33:12;1.27;;;1.27;;
4226;SDS011;2127;51.046;7.080;2024-02-04T01:35:38;2.57;;;1.33;;
4226;SDS011;2127;51.046;7.080;2024-02-04T01:38:04;1.57;;;1.47;;
4226;SDS011;2127;51.046;7.080;2024-02-04T01:40:31;2.80;;;2.30;;
4226;SDS011;2127;51.046;7.080;2024-02-04T01:42:57;3.23;;;2.27;;
4226;SDS011;2127;51.046;7.080;2024-02-04T01:45:25;3.20;;;1.97;;
4226;SDS011;2127;51.046;7.080;2024-02-04T01:47:51;5.20;;;1.80;;
4226;SDS011;2127;51.046;7.080;2024-02-04T01:50:18;2.30;;;2.20;;
4226;SDS011;2127;51.046;7.080;2024-02-04T01:52:44;1.67;;;1.57;;
4226;SDS011;2127;51.046;7.080;2024-02-04T01:55:12;1.47;;;1.40;;
4226;SDS011;2127;51.046;7.080;2024-02-04T01:57:38;2.60;;;1.77;;
4226;SDS011;2127;51.046;7.080;2024-02-04T02:00:05;3.30;;;2.33;;
4226;SDS011;2127;51.046;7.080;2024-02-04T02:02:35;4.00;;;1.77;;
4226;SDS011;2127;51.046;7.080;2024-02-04T02:05:05;2.67;;;1.30;;
4226;SDS011;2127;51.046;7.080;2024-02-04T02:07:31;1.90;;;1.73;;
4226;SDS011;2127;51.046;7.080;2024-02-04T02:09:57;4.30;;;3.07;;
4226;SDS011;2127;51.046;7.080;2024-02-04T02:12:24;2.33;;;1.47;;
4226;SDS011;2127;51.046;7.080;2024-02-04T02:14:54;2.40;;;1.33;;
4226;SDS011;2127;51.046;7.080;2024-02-04T02:17:23;1.63;;;1.53;;
4226;SDS011;2127;51.046;7.080;2024-02-04T02:19:54;1.70;;;1.60;;
4226;SDS011;2127;51.046;7.080;2024-02-04T02:22:26;5.50;;;2.63;;
4226;SDS011;2127;51.046;7.080;2024-02-04T02:24:54;2.97;;;2.10;;
4226;SDS011;2127;51.046;7.080;2024-02-04T02:27:22;1.27;;;1.27;;
4226;SDS011;2127;51.046;7.080;2024-02-04T02:29:48;1.87;;;1.70;;
4226;SDS011;2127;51.046;7.080;2024-02-04T02:32:14;1.50;;;1.40;;
4226;SDS011;2127;51.046;7.080;2024-02-04T02:34:40;2.43;;;2.00;;
4226;SDS011;2127;51.046;7.080;2024-02-04T02:37:09;1.10;;;1.10;;
4226;SDS011;2127;51.046;7.080;2024-02-04T02:39:42;1.10;;;1.10;;
4226;SDS011;2127;51.046;7.080;2024-02-04T02:42:13;1.00;;;1.00;;
4226;SDS011;2127;51.046;7.080;2024-02-04T02:44:39;5.03;;;1.60;;
4226;SDS011;2127;51.046;7.080;2024-02-04T02:47:06;1.87;;;1.77;;
4226;SDS011;2127;51.046;7.080;2024-02-04T02:49:32;3.17;;;1.80;;
4226;SDS011;2127;51.046;7.080;2024-02-04T02:51:59;2.10;;;1.87;;
4226;SDS011;2127;51.046;7.080;2024-02-04T02:54:25;1.30;;;1.23;;
4226;SDS011;2127;51.046;7.080;2024-02-04T02:56:51;2.13;;;1.33;;
4226;SDS011;2127;51.046;7.080;2024-02-04T02:59:19;1.70;;;1.60;;
4226;SDS011;2127;51.046;7.080;2024-02-04T03:01:45;2.23;;;2.07;;
4226;SDS011;2127;51.046;7.080;2024-02-04T03:04:11;1.77;;;1.67;;
4226;SDS011;2127;51.046;7.080;2024-02-04T03:06:38;4.00;;;2.10;;
4226;SDS011;2127;51.046;7.080;2024-02-04T03:09:04;3.57;;;1.83;;
4226;SDS011;2127;51.046;7.080;2024-02-04T03:11:31;1.20;;;1.00;;
4226;SDS011;2127;51.046;7.080;2024-02-04T03:13:57;2.17;;;2.07;;
4226;SDS011;2127;51.046;7.080;2024-02-04T03:16:25;1.20;;;1.10;;
4226;SDS011;2127;51.046;7.080;2024-02-04T03:18:52;1.03;;;1.03;;
4226;SDS011;2127;51.046;7.080;2024-02-04T03:21:19;1.73;;;1.30;;
4226;SDS011;2127;51.046;7.080;2024-02-04T03:23:45;11.00;;;1.30;;
4226;SDS011;2127;51.046;7.080;2024-02-04T03:26:11;1.10;;;1.00;;
4226;SDS011;2127;51.046;7.080;2024-02-04T03:28:42;0.93;;;0.90;;
4226;SDS011;2127;51.046;7.080;2024-02-04T03:31:08;1.20;;;1.10;;
4226;SDS011;2127;51.046;7.080;2024-02-04T03:33:36;1.03;;;1.00;;
4226;SDS011;2127;51.046;7.080;2024-02-04T03:36:02;1.07;;;1.07;;
4226;SDS011;2127;51.046;7.080;2024-02-04T03:38:29;0.43;;;0.40;;
4226;SDS011;2127;51.046;7.080;2024-02-04T03:40:55;1.40;;;1.30;;
4226;SDS011;2127;51.046;7.080;2024-02-04T03:43:21;1.27;;;1.17;;
4226;SDS011;2127;51.046;7.080;2024-02-04T03:45:47;1.80;;;1.10;;
4226;SDS011;2127;51.046;7.080;2024-02-04T03:48:14;0.93;;;0.93;;
4226;SDS011;2127;51.046;7.080;2024-02-04T03:50:42;0.60;;;0.60;;
4226;SDS011;2127;51.046;7.080;2024-02-04T03:53:08;0.90;;;0.90;;
4226;SDS011;2127;51.046;7.080;2024-02-04T03:55:34;2.33;;;0.90;;
4226;SDS011;2127;51.046;7.080;2024-02-04T03:58:01;12.97;;;0.93;;
4226;SDS011;2127;51.046;7.080;2024-02-04T04:00:27;1.60;;;1.50;;
4226;SDS011;2127;51.046;7.080;2024-02-04T04:02:53;2.20;;;1.87;;
4226;SDS011;2127;51.046;7.080;2024-02-04T04:05:20;1.50;;;1.40;;
4226;SDS011;2127;51.046;7.080;2024-02-04T04:07:47;1.63;;;1.40;;
4226;SDS011;2127;51.046;7.080;2024-02-04T04:10:13;1.70;;;1.50;;
4226;SDS011;2127;51.046;7.080;2024-02-04T04:12:40;3.53;;;2.00;;
4226;SDS011;2127;51.046;7.080;2024-02-04T04:15:06;2.00;;;1.57;;
4226;SDS011;2127;51.046;7.080;2024-02-04T04:17:33;1.20;;;1.10;;
4226;SDS011;2127;51.046;7.080;2024-02-04T04:19:59;1.10;;;1.10;;
4226;SDS011;2127;51.046;7.080;2024-02-04T04:22:26;1.13;;;1.13;;
4226;SDS011;2127;51.046;7.080;2024-02-04T04:24:53;2.23;;;1.60;;
4226;SDS011;2127;51.046;7.080;2024-02-04T04:27:19;1.70;;;1.67;;
4226;SDS011;2127;51.046;7.080;2024-02-04T04:29:46;2.33;;;2.13;;
4226;SDS011;2127;51.046;7.080;2024-02-04T04:32:12;9.93;;;1.63;;
4226;SDS011;2127;51.046;7.080;2024-02-04T04:34:38;1.67;;;1.57;;
4226;SDS011;2127;51.046;7.080;2024-02-04T04:37:04;1.80;;;1.40;;
4226;SDS011;2127;51.046;7.080;2024-02-04T04:39:31;1.50;;;1.40;;
4226;SDS011;2127;51.046;7.080;2024-02-04T04:41:59;1.27;;;1.27;;
4226;SDS011;2127;51.046;7.080;2024-02-04T04:44:25;1.67;;;1.53;;
4226;SDS011;2127;51.046;7.080;2024-02-04T04:46:52;1.40;;;1.30;;
4226;SDS011;2127;51.046;7.080;2024-02-04T04:49:18;2.13;;;1.90;;
4226;SDS011;2127;51.046;7.080;2024-02-04T04:51:45;1.37;;;1.27;;
4226;SDS011;2127;51.046;7.080;2024-02-04T04:54:12;1.50;;;1.40;;
4226;SDS011;2127;51.046;7.080;2024-02-04T04:56:38;1.20;;;1.10;;
4226;SDS011;2127;51.046;7.080;2024-02-04T04:59:06;1.37;;;1.20;;
4226;SDS011;2127;51.046;7.080;2024-02-04T05:01:32;1.27;;;1.13;;
4226;SDS011;2127;51.046;7.080;2024-02-04T05:03:58;3.30;;;1.73;;
4226;SDS011;2127;51.046;7.080;2024-02-04T05:06:25;1.43;;;1.33;;
4226;SDS011;2127;51.046;7.080;2024-02-04T05:08:51;1.37;;;1.07;;
4226;SDS011;2127;51.046;7.080;2024-02-04T05:11:17;1.67;;;1.57;;
4226;SDS011;2127;51.046;7.080;2024-02-04T05:13:44;1.70;;;1.00;;
4226;SDS011;2127;51.046;7.080;2024-02-04T05:16:11;1.00;;;1.00;;
4226;SDS011;2127;51.046;7.080;2024-02-04T05:18:38;0.77;;;0.77;;
4226;SDS011;2127;51.046;7.080;2024-02-04T05:21:05;1.40;;;1.30;;
4226;SDS011;2127;51.046;7.080;2024-02-04T05:23:31;1.70;;;1.60;;
4226;SDS011;2127;51.046;7.080;2024-02-04T05:25:58;3.47;;;2.10;;
4226;SDS011;2127;51.046;7.080;2024-02-04T05:28:24;2.37;;;1.80;;
4226;SDS011;2127;51.046;7.080;2024-02-04T05:30:50;2.50;;;1.40;;
4226;SDS011;2127;51.046;7.080;2024-02-04T05:33:18;1.27;;;1.17;;
4226;SDS011;2127;51.046;7.080;2024-02-04T05:35:44;4.50;;;2.23;;
4226;SDS011;2127;51.046;7.080;2024-02-04T05:38:10;1.10;;;1.00;;
4226;SDS011;2127;51.046;7.080;2024-02-04T05:40:36;1.97;;;1.83;;
4226;SDS011;2127;51.046;7.080;2024-02-04T05:43:03;2.13;;;1.93;;
4226;SDS011;2127;51.046;7.080;2024-02-04T05:45:31;1.20;;;1.10;;
4226;SDS011;2127;51.046;7.080;2024-02-04T05:47:58;1.70;;;1.60;;
4226;SDS011;2127;51.046;7.080;2024-02-04T05:50:25;1.50;;;1.40;;
4226;SDS011;2127;51.046;7.080;2024-02-04T05:52:52;2.67;;;2.57;;
4226;SDS011;2127;51.046;7.080;2024-02-04T05:55:18;2.20;;;1.97;;
4226;SDS011;2127;51.046;7.080;2024-02-04T05:57:44;2.23;;;2.03;;
4226;SDS011;2127;51.046;7.080;2024-02-04T06:00:11;2.50;;;1.37;;
4226;SDS011;2127;51.046;7.080;2024-02-04T06:02:38;1.40;;;1.07;;
4226;SDS011;2127;51.046;7.080;2024-02-04T06:05:04;2.10;;;2.00;;
4226;SDS011;2127;51.046;7.080;2024-02-04T06:07:32;2.03;;;1.83;;
4226;SDS011;2127;51.046;7.080;2024-02-04T06:09:58;3.80;;;1.40;;
4226;SDS011;2127;51.046;7.080;2024-02-04T06:12:26;2.03;;;1.30;;
4226;SDS011;2127;51.046;7.080;2024-02-04T06:14:52;1.83;;;1.40;;
4226;SDS011;2127;51.046;7.080;2024-02-04T06:17:18;2.50;;;1.40;;
4226;SDS011;2127;51.046;7.080;2024-02-04T06:19:45;2.63;;;1.50;;
4226;SDS011;2127;51.046;7.080;2024-02-04T06:22:11;2.87;;;2.60;;
4226;SDS011;2127;51.046;7.080;2024-02-04T06:24:39;3.17;;;2.90;;
4226;SDS011;2127;51.046;7.080;2024-02-04T06:27:06;3.77;;;3.40;;
4226;SDS011;2127;51.046;7.080;2024-02-04T06:29:32;3.53;;;3.27;;
4226;SDS011;2127;51.046;7.080;2024-02-04T06:31:58;2.87;;;2.70;;
4226;SDS011;2127;51.046;7.080;2024-02-04T06:34:25;3.13;;;2.83;;
4226;SDS011;2127;51.046;7.080;2024-02-04T06:36:51;2.10;;;2.00;;
4226;SDS011;2127;51.046;7.080;2024-02-04T06:39:17;6.30;;;3.30;;
4226;SDS011;2127;51.046;7.080;2024-02-04T06:41:45;2.57;;;2.47;;
4226;SDS011;2127;51.046;7.080;2024-02-04T06:44:11;2.80;;;1.50;;
4226;SDS011;2127;51.046;7.080;2024-02-04T06:46:38;3.23;;;2.60;;
4226;SDS011;2127;51.046;7.080;2024-02-04T06:49:04;1.90;;;1.80;;
4226;SDS011;2127;51.046;7.080;2024-02-04T06:51:30;5.83;;;2.57;;
4226;SDS011;2127;51.046;7.080;2024-02-04T06:53:56;2.83;;;2.60;;
4226;SDS011;2127;51.046;7.080;2024-02-04T06:56:23;2.00;;;1.83;;
4226;SDS011;2127;51.046;7.080;2024-02-04T06:58:50;2.77;;;2.57;;
4226;SDS011;2127;51.046;7.080;2024-02-04T07:01:17;2.63;;;2.43;;
4226;SDS011;2127;51.046;7.080;2024-02-04T07:03:43;2.03;;;1.93;;
4226;SDS011;2127;51.046;7.080;2024-02-04T07:06:09;2.90;;;2.27;;
4226;SDS011;2127;51.046;7.080;2024-02-04T07:08:35;14.93;;;1.97;;
4226;SDS011;2127;51.046;7.080;2024-02-04T07:11:02;3.00;;;1.97;;
4226;SDS011;2127;51.046;7.080;2024-02-04T07:13:28;5.40;;;2.93;;
4226;SDS011;2127;51.046;7.080;2024-02-04T07:15:56;2.47;;;2.27;;
4226;SDS011;2127;51.046;7.080;2024-02-04T07:18:22;2.80;;;2.60;;
4226;SDS011;2127;51.046;7.080;2024-02-04T07:20:49;1.97;;;1.83;;
4226;SDS011;2127;51.046;7.080;2024-02-04T07:23:15;2.40;;;1.87;;
4226;SDS011;2127;51.046;7.080;2024-02-04T07:25:42;1.30;;;0.80;;
4226;SDS011;2127;51.046;7.080;2024-02-04T07:28:08;0.67;;;0.67;;
4226;SDS011;2127;51.046;7.080;2024-02-04T07:30:35;11.37;;;1.50;;
4226;SDS011;2127;51.046;7.080;2024-02-04T07:33:02;3.27;;;1.07;;
4226;SDS011;2127;51.046;7.080;2024-02-04T07:35:29;3.20;;;1.97;;
4226;SDS011;2127;51.046;7.080;2024-02-04T07:37:55;4.53;;;1.37;;
4226;SDS011;2127;51.046;7.080;2024-02-04T07:40:21;1.47;;;1.37;;
4226;SDS011;2127;51.046;7.080;2024-02-04T07:42:47;1.27;;;1.07;;
4226;SDS011;2127;51.046;7.080;2024-02-04T07:45:14;1.60;;;1.50;;
4226;SDS011;2127;51.046;7.080;2024-02-04T07:47:40;1.53;;;1.43;;
4226;SDS011;2127;51.046;7.080;2024-02-04T07:50:08;1.20;;;1.10;;
4226;SDS011;2127;51.046;7.080;2024-02-04T07:52:35;1.30;;;1.20;;
4226;SDS011;2127;51.046;7.080;2024-02-04T07:55:01;1.30;;;1.20;;
4226;SDS011;2127;51.046;7.080;2024-02-04T07:57:27;2.30;;;1.57;;
4226;SDS011;2127;51.046;7.080;2024-02-04T07:59:53;3.53;;;1.10;;
4226;SDS011;2127;51.046;7.080;2024-02-04T08:02:20;1.07;;;1.07;;
4226;SDS011;2127;51.046;7.080;2024-02-04T08:04:46;0.70;;;0.70;;
4226;SDS011;2127;51.046;7.080;2024-02-04T08:07:14;0.90;;;0.90;;
4226;SDS011;2127;51.046;7.080;2024-02-04T08:09:42;0.60;;;0.60;;
4226;SDS011;2127;51.046;7.080;2024-02-04T08:12:08;1.80;;;0.60;;
4226;SDS011;2127;51.046;7.080;2024-02-04T08:14:35;1.47;;;0.60;;
4226;SDS011;2127;51.046;7.080;2024-02-04T08:17:01;5.13;;;0.60;;
4226;SDS011;2127;51.046;7.080;2024-02-04T08:19:27;1.03;;;0.93;;
4226;SDS011;2127;51.046;7.080;2024-02-04T08:21:53;2.90;;;0.90;;
4226;SDS011;2127;51.046;7.080;2024-02-04T08:24:21;0.43;;;0.43;;
4226;SDS011;2127;51.046;7.080;2024-02-04T08:26:47;0.60;;;0.60;;
4226;SDS011;2127;51.046;7.080;2024-02-04T08:29:14;0.70;;;0.70;;
4226;SDS011;2127;51.046;7.080;2024-02-04T08:31:40;0.50;;;0.50;;
4226;SDS011;2127;51.046;7.080;2024-02-04T08:34:06;0.87;;;0.80;;
4226;SDS011;2127;51.046;7.080;2024-02-04T08:36:32;0.87;;;0.80;;
4226;SDS011;2127;51.046;7.080;2024-02-04T08:38:59;1.13;;;1.13;;
4226;SDS011;2127;51.046;7.080;2024-02-04T08:41:26;0.60;;;0.60;;
4226;SDS011;2127;51.046;7.080;2024-02-04T08:43:53;1.10;;;1.00;;
4226;SDS011;2127;51.046;7.080;2024-02-04T08:46:19;0.60;;;0.60;;
4226;SDS011;2127;51.046;7.080;2024-02-04T08:48:45;0.80;;;0.80;;
4226;SDS011;2127;51.046;7.080;2024-02-04T08:51:12;1.13;;;1.03;;
4226;SDS011;2127;51.046;7.080;2024-02-04T08:53:38;1.27;;;1.03;;
4226;SDS011;2127;51.046;7.080;2024-02-04T08:56:05;1.33;;;1.03;;
4226;SDS011;2127;51.046;7.080;2024-02-04T08:58:33;1.10;;;0.77;;
4226;SDS011;2127;51.046;7.080;2024-02-04T09:00:59;0.93;;;0.93;;
4226;SDS011;2127;51.046;7.080;2024-02-04T09:03:25;1.30;;;0.90;;
4226;SDS011;2127;51.046;7.080;2024-02-04T09:05:52;0.63;;;0.53;;
4226;SDS011;2127;51.046;7.080;2024-02-04T09:08:18;1.20;;;1.10;;
4226;SDS011;2127;51.046;7.080;2024-02-04T09:10:44;0.77;;;0.73;;
4226;SDS011;2127;51.046;7.080;2024-02-04T09:13:10;2.80;;;0.90;;
4226;SDS011;2127;51.046;7.080;2024-02-04T09:15:38;0.50;;;0.50;;
4226;SDS011;2127;51.046;7.080;2024-02-04T09:18:04;0.40;;;0.40;;
4226;SDS011;2127;51.046;7.080;2024-02-04T09:20:31;0.40;;;0.40;;
4226;SDS011;2127;51.046;7.080;2024-02-04T09:22:57;1.10;;;1.00;;
4226;SDS011;2127;51.046;7.080;2024-02-04T09:25:24;0.93;;;0.93;;
4226;SDS011;2127;51.046;7.080;2024-02-04T09:27:50;1.83;;;1.73;;
4226;SDS011;2127;51.046;7.080;2024-02-04T09:30:17;1.17;;;1.17;;
4226;SDS011;2127;51.046;7.080;2024-02-04T09:32:44;0.97;;;0.93;;
4226;SDS011;2127;51.046;7.080;2024-02-04T09:35:11;0.80;;;0.80;;
4226;SDS011;2127;51.046;7.080;2024-02-04T09:37:37;1.17;;;1.07;;
4226;SDS011;2127;51.046;7.080;2024-02-04T09:40:04;1.20;;;1.00;;
4226;SDS011;2127;51.046;7.080;2024-02-04T09:42:30;0.77;;;0.77;;
4226;SDS011;2127;51.046;7.080;2024-02-04T09:44:57;0.53;;;0.53;;
4226;SDS011;2127;51.046;7.080;2024-02-04T09:47:24;0.50;;;0.50;;
4226;SDS011;2127;51.046;7.080;2024-02-04T09:49:51;1.13;;;1.03;;
4226;SDS011;2127;51.046;7.080;2024-02-04T09:52:21;2.10;;;0.83;;
4226;SDS011;2127;51.046;7.080;2024-02-04T09:54:50;1.07;;;1.07;;
4226;SDS011;2127;51.046;7.080;2024-02-04T09:57:16;5.20;;;0.70;;
4226;SDS011;2127;51.046;7.080;2024-02-04T09:59:43;0.60;;;0.60;;
4226;SDS011;2127;51.046;7.080;2024-02-04T10:02:10;2.97;;;1.03;;
4226;SDS011;2127;51.046;7.080;2024-02-04T10:04:37;0.60;;;0.60;;
4226;SDS011;2127;51.046;7.080;2024-02-04T10:07:05;0.90;;;0.90;;
4226;SDS011;2127;51.046;7.080;2024-02-04T10:09:31;0.60;;;0.60;;
4226;SDS011;2127;51.046;7.080;2024-02-04T10:11:58;2.10;;;1.10;;
4226;SDS011;2127;51.046;7.080;2024-02-04T10:14:25;0.80;;;0.80;;
4226;SDS011;2127;51.046;7.080;2024-02-04T10:16:51;1.47;;;1.37;;
4226;SDS011;2127;51.046;7.080;2024-02-04T10:19:17;0.60;;;0.60;;
4226;SDS011;2127;51.046;7.080;2024-02-04T10:21:44;6.33;;;0.80;;
4226;SDS011;2127;51.046;7.080;2024-02-04T10:24:11;0.70;;;0.70;;
4226;SDS011;2127;51.046;7.080;2024-02-04T10:26:37;1.10;;;1.00;;
4226;SDS011;2127;51.046;7.080;2024-02-04T10:29:06;28.13;;;2.50;;
4226;SDS011;2127;51.046;7.080;2024-02-04T10:31:33;1.00;;;1.00;;
4226;SDS011;2127;51.046;7.080;2024-02-04T10:33:59;4.87;;;2.07;;
4226;SDS011;2127;51.046;7.080;2024-02-04T10:36:25;0.80;;;0.80;;
4226;SDS011;2127;51.046;7.080;2024-02-04T10:38:52;0.77;;;0.77;;
4226;SDS011;2127;51.046;7.080;2024-02-04T10:41:19;4.33;;;1.23;;
4226;SDS011;2127;51.046;7.080;2024-02-04T10:43:46;0.87;;;0.87;;
4226;SDS011;2127;51.046;7.080;2024-02-04T10:46:13;1.33;;;1.10;;
4226;SDS011;2127;51.046;7.080;2024-02-04T10:48:41;1.30;;;1.20;;
4226;SDS011;2127;51.046;7.080;2024-02-04T10:51:10;2.67;;;2.23;;
4226;SDS011;2127;51.046;7.080;2024-02-04T10:53:38;1.40;;;1.10;;
4226;SDS011;2127;51.046;7.080;2024-02-04T10:56:05;1.43;;;1.33;;
4226;SDS011;2127;51.046;7.080;2024-02-04T10:58:33;2.60;;;1.23;;
4226;SDS011;2127;51.046;7.080;2024-02-04T11:01:00;1.10;;;0.90;;
4226;SDS011;2127;51.046;7.080;2024-02-04T11:03:27;2.63;;;1.80;;
4226;SDS011;2127;51.046;7.080;2024-02-04T11:05:54;1.40;;;1.33;;
4226;SDS011;2127;51.046;7.080;2024-02-04T11:08:21;1.20;;;0.93;;
4226;SDS011;2127;51.046;7.080;2024-02-04T11:10:47;1.27;;;0.90;;
4226;SDS011;2127;51.046;7.080;2024-02-04T11:13:14;1.53;;;1.37;;
4226;SDS011;2127;51.046;7.080;2024-02-04T11:15:42;1.50;;;1.40;;
4226;SDS011;2127;51.046;7.080;2024-02-04T11:18:21;1.07;;;0.97;;
4226;SDS011;2127;51.046;7.080;2024-02-04T11:20:56;1.00;;;1.00;;
4226;SDS011;2127;51.046;7.080;2024-02-04T11:23:37;1.13;;;0.90;;
4226;SDS011;2127;51.046;7.080;2024-02-04T11:26:07;0.87;;;0.87;;
4226;SDS011;2127;51.046;7.080;2024-02-04T11:28:34;1.57;;;1.00;;
4226;SDS011;2127;51.046;7.080;2024-02-04T11:31:02;2.77;;;1.10;;
4226;SDS011;2127;51.046;7.080;2024-02-04T11:33:29;3.77;;;1.10;;
4226;SDS011;2127;51.046;7.080;2024-02-04T11:35:59;0.80;;;0.80;;
4226;SDS011;2127;51.046;7.080;2024-02-04T11:38:29;1.53;;;1.43;;
4226;SDS011;2127;51.046;7.080;2024-02-04T11:40:55;0.80;;;0.80;;
4226;SDS011;2127;51.046;7.080;2024-02-04T11:43:22;1.97;;;0.73;;
4226;SDS011;2127;51.046;7.080;2024-02-04T11:45:51;1.00;;;1.00;;
4226;SDS011;2127;51.046;7.080;2024-02-04T11:48:18;1.07;;;1.07;;
4226;SDS011;2127;51.046;7.080;2024-02-04T11:50:51;1.20;;;0.90;;
4226;SDS011;2127;51.046;7.080;2024-02-04T11:53:18;1.33;;;1.23;;
4226;SDS011;2127;51.046;7.080;2024-02-04T11:55:44;1.80;;;1.13;;
4226;SDS011;2127;51.046;7.080;2024-02-04T11:58:11;1.27;;;1.27;;
4226;SDS011;2127;51.046;7.080;2024-02-04T12:00:37;0.83;;;0.83;;
4226;SDS011;2127;51.046;7.080;2024-02-04T12:03:07;2.50;;;1.87;;
4226;SDS011;2127;51.046;7.080;2024-02-04T12:05:35;1.60;;;1.37;;
4226;SDS011;2127;51.046;7.080;2024-02-04T12:08:03;1.40;;;1.40;;
4226;SDS011;2127;51.046;7.080;2024-02-04T12:10:30;8.63;;;1.80;;
4226;SDS011;2127;51.046;7.080;2024-02-04T12:12:57;1.53;;;1.10;;
4226;SDS011;2127;51.046;7.080;2024-02-04T12:15:23;8.83;;;1.57;;
4226;SDS011;2127;51.046;7.080;2024-02-04T12:17:49;0.77;;;0.77;;
4226;SDS011;2127;51.046;7.080;2024-02-04T12:20:15;6.63;;;1.57;;
4226;SDS011;2127;51.046;7.080;2024-02-04T12:22:43;0.80;;;0.80;;
4226;SDS011;2127;51.046;7.080;2024-02-04T12:25:09;1.67;;;0.83;;
4226;SDS011;2127;51.046;7.080;2024-02-04T12:27:36;1.80;;;1.23;;
4226;SDS011;2127;51.046;7.080;2024-02-04T12:30:03;0.80;;;0.80;;
4226;SDS011;2127;51.046;7.080;2024-02-04T12:32:30;0.90;;;0.90;;
4226;SDS011;2127;51.046;7.080;2024-02-04T12:34:56;0.80;;;0.80;;
4226;SDS011;2127;51.046;7.080;2024-02-04T12:37:23;1.23;;;0.73;;
4226;SDS011;2127;51.046;7.080;2024-02-04T12:39:51;1.87;;;0.83;;
4226;SDS011;2127;51.046;7.080;2024-02-04T12:42:17;1.10;;;1.10;;
4226;SDS011;2127;51.046;7.080;2024-02-04T12:44:45;0.87;;;0.87;;
4226;SDS011;2127;51.046;7.080;2024-02-04T12:47:11;2.37;;;1.13;;
4226;SDS011;2127;51.046;7.080;2024-02-04T12:49:37;1.00;;;1.00;;
4226;SDS011;2127;51.046;7.080;2024-02-04T12:52:04;0.93;;;0.93;;
4226;SDS011;2127;51.046;7.080;2024-02-04T12:54:30;0.87;;;0.87;;
4226;SDS011;2127;51.046;7.080;2024-02-04T12:56:58;0.63;;;0.63;;
4226;SDS011;2127;51.046;7.080;2024-02-04T12:59:25;0.40;;;0.40;;
4226;SDS011;2127;51.046;7.080;2024-02-04T13:01:52;0.97;;;0.87;;
4226;SDS011;2127;51.046;7.080;2024-02-04T13:04:18;1.47;;;0.70;;
4226;SDS011;2127;51.046;7.080;2024-02-04T13:06:45;0.60;;;0.60;;
4226;SDS011;2127;51.046;7.080;2024-02-04T13:09:11;0.60;;;0.60;;
4226;SDS011;2127;51.046;7.080;2024-02-04T13:11:37;0.73;;;0.73;;
4226;SDS011;2127;51.046;7.080;2024-02-04T13:14:05;0.80;;;0.80;;
4226;SDS011;2127;51.046;7.080;2024-02-04T13:16:31;0.70;;;0.70;;
4226;SDS011;2127;51.046;7.080;2024-02-04T13:18:58;1.87;;;0.87;;
4226;SDS011;2127;51.046;7.080;2024-02-04T13:21:25;1.10;;;1.10;;
4226;SDS011;2127;51.046;7.080;2024-02-04T13:23:51;1.60;;;1.33;;
4226;SDS011;2127;51.046;7.080;2024-02-04T13:26:17;2.17;;;1.73;;
4226;SDS011;2127;51.046;7.080;2024-02-04T13:28:44;1.83;;;1.37;;
4226;SDS011;2127;51.046;7.080;2024-02-04T13:31:11;1.40;;;1.30;;
4226;SDS011;2127;51.046;7.080;2024-02-04T13:33:38;1.60;;;1.60;;
4226;SDS011;2127;51.046;7.080;2024-02-04T13:36:04;1.20;;;1.17;;
4226;SDS011;2127;51.046;7.080;2024-02-04T13:38:31;1.77;;;1.67;;
4226;SDS011;2127;51.046;7.080;2024-02-04T13:40:57;1.73;;;1.63;;
4226;SDS011;2127;51.046;7.080;2024-02-04T13:43:24;1.07;;;1.07;;
4226;SDS011;2127;51.046;7.080;2024-02-04T13:45:50;1.13;;;0.90;;
4226;SDS011;2127;51.046;7.080;2024-02-04T13:48:18;2.10;;;2.00;;
4226;SDS011;2127;51.046;7.080;2024-02-04T13:50:45;1.47;;;1.47;;
4226;SDS011;2127;51.046;7.080;2024-02-04T13:53:11;2.03;;;1.93;;
4226;SDS011;2127;51.046;7.080;2024-02-04T13:55:38;1.40;;;1.40;;
4226;SDS011;2127;51.046;7.080;2024-02-04T13:58:05;5.00;;;1.87;;
4226;SDS011;2127;51.046;7.080;2024-02-04T14:00:31;1.40;;;1.40;;
4226;SDS011;2127;51.046;7.080;2024-02-04T14:02:58;2.00;;;1.47;;
4226;SDS011;2127;51.046;7.080;2024-02-04T14:05:25;1.87;;;1.77;;
4226;SDS011;2127;51.046;7.080;2024-02-04T14:07:52;1.67;;;1.00;;
4226;SDS011;2127;51.046;7.080;2024-02-04T14:10:18;2.33;;;1.80;;
4226;SDS011;2127;51.046;7.080;2024-02-04T14:12:44;0.80;;;0.80;;
4226;SDS011;2127;51.046;7.080;2024-02-04T14:15:11;2.00;;;1.20;;
4226;SDS011;2127;51.046;7.080;2024-02-04T14:17:37;1.20;;;1.10;;
4226;SDS011;2127;51.046;7.080;2024-02-04T14:20:04;1.67;;;1.00;;
4226;SDS011;2127;51.046;7.080;2024-02-04T14:22:31;1.37;;;1.10;;
4226;SDS011;2127;51.046;7.080;2024-02-04T14:24:58;0.70;;;0.70;;
4226;SDS011;2127;51.046;7.080;2024-02-04T14:27:24;0.97;;;0.97;;
4226;SDS011;2127;51.046;7.080;2024-02-04T14:29:51;0.90;;;0.90;;
4226;SDS011;2127;51.046;7.080;2024-02-04T14:32:17;0.77;;;0.77;;
4226;SDS011;2127;51.046;7.080;2024-02-04T14:34:44;1.20;;;1.07;;
4226;SDS011;2127;51.046;7.080;2024-02-04T14:37:10;0.97;;;0.97;;
4226;SDS011;2127;51.046;7.080;2024-02-04T14:39:38;0.73;;;0.73;;
4226;SDS011;2127;51.046;7.080;2024-02-04T14:42:05;0.60;;;0.60;;
4226;SDS011;2127;51.046;7.080;2024-02-04T14:44:32;0.90;;;0.90;;
4226;SDS011;2127;51.046;7.080;2024-02-04T14:46:58;0.83;;;0.83;;
4226;SDS011;2127;51.046;7.080;2024-02-04T14:49:24;0.77;;;0.70;;
4226;SDS011;2127;51.046;7.080;2024-02-04T14:51:52;1.67;;;1.27;;
4226;SDS011;2127;51.046;7.080;2024-02-04T14:54:18;0.70;;;0.70;;
4226;SDS011;2127;51.046;7.080;2024-02-04T14:56:46;0.90;;;0.90;;
4226;SDS011;2127;51.046;7.080;2024-02-04T14:59:13;0.93;;;0.93;;
4226;SDS011;2127;51.046;7.080;2024-02-04T15:01:40;0.67;;;0.67;;
4226;SDS011;2127;51.046;7.080;2024-02-04T15:04:10;0.67;;;0.67;;
4226;SDS011;2127;51.046;7.080;2024-02-04T15:06:37;0.87;;;0.87;;
4226;SDS011;2127;51.046;7.080;2024-02-04T15:09:03;0.67;;;0.67;;
4226;SDS011;2127;51.046;7.080;2024-02-04T15:11:29;0.70;;;0.70;;